Athol, Massachusetts
Current Conditions -  °F | °C
As of 8:52 AM on Friday 19 Dec 2014 (Local Time) from KORE Reporting Station
Overcast Overcast  
Wind Chill: -4°   Ceiling: 4700
Heat Index:   Visibility: 10mi
Dew Point: -6°   Wind: 8mph
Humidity: 66%   Direction: 320°NW
Pressure: 29.95"   Gusts: NA
Location:  42.59°N, 72.23°W
Report Text: KORE 191352Z AUTO 32007KT 10SM FEW034 OVC047 00/M06 A2995 RMK AO2 SLP148 T00001056
Loading
Personal Weather Stations






























Interactive Weather Map New forecast layout! Learn more

10-Day Weather Forecast

Advertisements
Track Severe Weather on mobile